createdAt,value
2018-09-01T00:00:19.079Z,10.13
2018-09-01T00:02:47.768Z,10.70
2018-09-01T00:05:16.471Z,9.37
2018-09-01T00:07:45.141Z,10.17
2018-09-01T00:10:13.779Z,9.97
2018-09-01T00:12:42.495Z,10.23
2018-09-01T00:15:11.146Z,10.17
2018-09-01T00:17:39.802Z,10.47
2018-09-01T00:20:08.460Z,10.53
2018-09-01T00:22:37.078Z,11.23
2018-09-01T00:25:05.958Z,9.67
2018-09-01T00:27:34.638Z,11.10
2018-09-01T00:30:03.306Z,10.43
2018-09-01T00:32:32.092Z,10.73
2018-09-01T00:35:00.782Z,11.30
2018-09-01T00:37:34.732Z,8.93
2018-09-01T00:40:03.372Z,10.17
2018-09-01T00:42:32.070Z,10.10
2018-09-01T00:45:00.735Z,10.67
2018-09-01T00:47:29.411Z,11.50
2018-09-01T00:49:58.146Z,8.57
2018-09-01T00:52:26.831Z,9.20
2018-09-01T00:54:55.520Z,10.83
2018-09-01T00:57:24.237Z,10.27
2018-09-01T00:59:52.898Z,9.50
2018-09-01T01:02:21.560Z,9.80
2018-09-01T01:04:50.242Z,11.70
2018-09-01T01:07:18.891Z,11.40
2018-09-01T01:09:47.534Z,9.83
2018-09-01T01:12:16.155Z,9.90
2018-09-01T01:14:44.883Z,10.47
2018-09-01T01:17:13.609Z,9.23
2018-09-01T01:19:42.271Z,9.23
2018-09-01T01:22:11.532Z,9.77
2018-09-01T01:24:40.252Z,9.97
2018-09-01T01:27:08.869Z,10.00
2018-09-01T01:29:37.546Z,9.80
2018-09-01T01:32:06.352Z,9.87
2018-09-01T01:34:35.123Z,8.50
2018-09-01T01:37:03.828Z,8.00
2018-09-01T01:39:32.486Z,8.20
2018-09-01T01:42:01.266Z,9.17
2018-09-01T01:44:29.957Z,8.07
2018-09-01T01:46:58.947Z,9.10
2018-09-01T01:49:27.637Z,7.90
2018-09-01T01:51:56.288Z,9.00
2018-09-01T01:54:24.949Z,9.23
2018-09-01T01:56:53.633Z,8.90
2018-09-01T01:59:22.292Z,8.80
2018-09-01T02:01:50.993Z,8.20
2018-09-01T02:04:19.644Z,7.83
2018-09-01T02:06:48.339Z,9.17
2018-09-01T02:09:17.028Z,8.50
2018-09-01T02:11:45.724Z,7.70
2018-09-01T02:14:14.415Z,8.37
2018-09-01T02:16:43.099Z,7.90
2018-09-01T02:19:11.766Z,9.03
2018-09-01T02:21:40.399Z,8.50
2018-09-01T02:24:09.046Z,9.10
2018-09-01T02:26:37.794Z,10.47
2018-09-01T02:29:06.680Z,8.47
2018-09-01T02:31:35.381Z,8.40
2018-09-01T02:34:04.104Z,8.87
2018-09-01T02:36:32.768Z,8.53
2018-09-01T02:39:01.488Z,8.97
2018-09-01T02:41:30.246Z,9.10
2018-09-01T02:43:58.911Z,8.20
2018-09-01T02:46:27.555Z,8.90
2018-09-01T02:48:56.269Z,8.43
2018-09-01T02:51:24.885Z,8.30
2018-09-01T02:53:53.633Z,8.63
2018-09-01T02:56:22.276Z,7.70
2018-09-01T02:58:50.967Z,8.87
2018-09-01T03:01:24.908Z,9.90
2018-09-01T03:03:53.588Z,9.77
2018-09-01T03:06:22.258Z,9.20
2018-09-01T03:08:50.968Z,9.33
2018-09-01T03:11:19.679Z,10.00
2018-09-01T03:13:48.367Z,9.57
2018-09-01T03:16:17.028Z,9.60
2018-09-01T03:18:45.692Z,9.00
2018-09-01T03:21:14.378Z,9.00
2018-09-01T03:23:43.107Z,8.27
2018-09-01T03:26:11.776Z,8.30
2018-09-01T03:28:40.429Z,8.13
2018-09-01T03:31:09.160Z,9.30
2018-09-01T03:33:37.819Z,8.70
2018-09-01T03:36:06.487Z,8.90
2018-09-01T03:38:35.227Z,9.17
2018-09-01T03:41:03.876Z,7.80
2018-09-01T03:43:32.543Z,8.63
2018-09-01T03:46:01.947Z,8.23
2018-09-01T03:48:30.592Z,8.37
2018-09-01T03:50:59.448Z,7.80
2018-09-01T03:53:28.136Z,8.93
2018-09-01T03:55:56.866Z,7.87
2018-09-01T03:58:25.471Z,8.20
2018-09-01T04:00:54.171Z,8.07
2018-09-01T04:03:22.848Z,6.57
2018-09-01T04:05:51.538Z,7.40
2018-09-01T04:08:20.210Z,7.60
2018-09-01T04:10:48.873Z,7.37
2018-09-01T04:13:17.536Z,8.17
2018-09-01T04:15:47.403Z,7.03
2018-09-01T04:18:16.858Z,6.27
2018-09-01T04:20:45.547Z,7.10
2018-09-01T04:23:14.329Z,6.67
2018-09-01T04:25:42.983Z,6.50
2018-09-01T04:28:11.907Z,6.17
2018-09-01T04:30:40.626Z,7.20
2018-09-01T04:33:09.301Z,6.67
2018-09-01T04:35:38.004Z,6.43
2018-09-01T04:38:06.679Z,7.30
2018-09-01T04:40:35.308Z,6.17
2018-09-01T04:43:03.992Z,6.80
2018-09-01T04:45:32.615Z,7.30
2018-09-01T04:48:01.316Z,6.50
2018-09-01T04:50:29.980Z,6.63
2018-09-01T04:52:58.648Z,6.43
2018-09-01T04:55:27.376Z,6.33
2018-09-01T04:57:56.040Z,5.80
2018-09-01T05:00:24.753Z,5.97
2018-09-01T05:02:54.364Z,7.23
2018-09-01T05:05:23.032Z,6.23
2018-09-01T05:07:51.687Z,5.70
2018-09-01T05:10:20.396Z,6.80
2018-09-01T05:12:49.713Z,5.83
2018-09-01T05:15:18.561Z,5.83
2018-09-01T05:17:47.276Z,6.50
2018-09-01T05:20:16.912Z,5.83
2018-09-01T05:22:45.565Z,5.83
2018-09-01T05:25:14.285Z,6.43
2018-09-01T05:27:42.939Z,6.40
2018-09-01T05:30:11.629Z,6.27
2018-09-01T05:32:40.272Z,7.27
2018-09-01T05:35:08.903Z,5.63
2018-09-01T05:37:37.660Z,5.50
2018-09-01T05:40:07.067Z,6.27
2018-09-01T05:42:35.728Z,6.10
2018-09-01T05:45:04.392Z,5.77
2018-09-01T05:47:33.026Z,6.00
2018-09-01T05:50:02.040Z,6.17
2018-09-01T05:52:30.695Z,7.23
2018-09-01T05:54:59.332Z,5.80
2018-09-01T05:57:28.050Z,5.93
2018-09-01T05:59:56.778Z,6.10
2018-09-01T06:02:25.524Z,5.23
2018-09-01T06:04:54.219Z,4.80
2018-09-01T06:07:22.868Z,5.60
2018-09-01T06:09:51.615Z,5.10
2018-09-01T06:12:20.280Z,5.50
2018-09-01T06:14:48.990Z,4.83
2018-09-01T06:17:17.629Z,5.23
2018-09-01T06:19:46.539Z,5.33
2018-09-01T06:22:16.099Z,5.00
2018-09-01T06:24:44.779Z,5.33
2018-09-01T06:27:18.849Z,4.30
2018-09-01T06:29:47.791Z,4.77
2018-09-01T06:32:16.711Z,4.27
2018-09-01T06:34:45.403Z,6.07
2018-09-01T06:37:14.464Z,3.40
2018-09-01T06:39:43.159Z,3.20
2018-09-01T06:42:11.932Z,3.30
2018-09-01T06:44:40.659Z,2.97
2018-09-01T06:47:09.339Z,3.27
2018-09-01T06:49:38.063Z,3.93
2018-09-01T06:52:06.713Z,3.20
2018-09-01T06:54:36.117Z,2.80
2018-09-01T06:57:04.786Z,3.90
2018-09-01T06:59:33.667Z,3.60
2018-09-01T07:02:02.484Z,2.87
2018-09-01T07:04:31.164Z,3.30
2018-09-01T07:06:59.795Z,2.17
2018-09-01T07:09:28.452Z,2.63
2018-09-01T07:11:57.201Z,2.90
2018-09-01T07:14:25.866Z,3.40
2018-09-01T07:16:54.580Z,3.10
2018-09-01T07:19:23.501Z,3.20
2018-09-01T07:21:52.191Z,2.70
2018-09-01T07:24:20.864Z,2.53
2018-09-01T07:26:49.515Z,2.37
2018-09-01T07:29:18.517Z,2.60
2018-09-01T07:31:47.200Z,2.43
2018-09-01T07:34:15.872Z,2.90
2018-09-01T07:36:44.549Z,2.97
2018-09-01T07:39:13.229Z,3.10
2018-09-01T07:41:41.891Z,2.57
2018-09-01T07:44:10.523Z,2.43
2018-09-01T07:46:39.172Z,2.70
2018-09-01T07:49:08.088Z,3.10
2018-09-01T07:51:36.751Z,2.30
2018-09-01T07:54:05.835Z,2.63
2018-09-01T07:56:34.487Z,3.00
2018-09-01T07:59:03.151Z,2.70
2018-09-01T08:01:31.937Z,2.80
2018-09-01T08:04:00.710Z,2.60
2018-09-01T08:06:29.385Z,3.17
2018-09-01T08:08:58.881Z,3.30
2018-09-01T08:11:27.540Z,3.10
2018-09-01T08:13:56.737Z,3.17
2018-09-01T08:16:25.792Z,3.10
2018-09-01T08:18:54.529Z,3.20
2018-09-01T08:21:23.235Z,2.87
2018-09-01T08:23:52.667Z,3.00
2018-09-01T08:26:21.647Z,2.73
2018-09-01T08:28:50.330Z,2.40
2018-09-01T08:31:19.029Z,2.93
2018-09-01T08:33:49.031Z,3.20
2018-09-01T08:36:17.768Z,3.23
2018-09-01T08:38:46.420Z,3.00
2018-09-01T08:41:15.080Z,3.30
2018-09-01T08:43:43.724Z,2.60
2018-09-01T08:46:12.384Z,3.07
2018-09-01T08:48:41.024Z,3.00
2018-09-01T08:51:09.680Z,2.97
2018-09-01T08:53:38.352Z,3.37
2018-09-01T08:56:07.367Z,2.97
2018-09-01T08:58:35.999Z,2.37
2018-09-01T09:01:04.700Z,2.37
2018-09-01T09:03:33.355Z,2.90
2018-09-01T09:06:02.017Z,2.60
2018-09-01T09:08:30.695Z,2.60
2018-09-01T09:10:59.325Z,2.87
2018-09-01T09:13:28.017Z,2.70
2018-09-01T09:15:56.737Z,2.80
2018-09-01T09:18:25.384Z,2.87
2018-09-01T09:20:54.136Z,3.13
2018-09-01T09:23:22.793Z,2.87
2018-09-01T09:25:51.479Z,2.90
2018-09-01T09:28:20.139Z,3.67
2018-09-01T09:30:48.800Z,2.70
2018-09-01T09:33:17.470Z,3.03
2018-09-01T09:35:46.150Z,3.50
2018-09-01T09:38:14.795Z,2.80
2018-09-01T09:40:43.677Z,2.40
2018-09-01T09:43:12.359Z,2.80
2018-09-01T09:45:41.030Z,2.97
2018-09-01T09:48:10.039Z,3.07
2018-09-01T09:50:39.800Z,2.80
2018-09-01T09:53:08.483Z,2.43
2018-09-01T09:55:37.252Z,2.60
2018-09-01T09:58:07.165Z,2.77
2018-09-01T10:00:41.323Z,2.97
2018-09-01T10:03:09.952Z,2.50
2018-09-01T10:05:38.700Z,2.67
2018-09-01T10:08:07.280Z,2.67
2018-09-01T10:10:35.959Z,2.57
2018-09-01T10:13:04.651Z,2.30
2018-09-01T10:15:33.299Z,2.40
2018-09-01T10:18:02.306Z,2.37
2018-09-01T10:20:31.083Z,2.30
2018-09-01T10:22:59.768Z,3.60
2018-09-01T10:25:28.515Z,2.73
2018-09-01T10:27:57.167Z,2.50
2018-09-01T10:30:26.846Z,2.53
2018-09-01T10:32:55.517Z,2.53
2018-09-01T10:35:24.259Z,2.70
2018-09-01T10:37:53.023Z,2.43
2018-09-01T10:40:22.218Z,2.30
2018-09-01T10:42:50.895Z,2.30
2018-09-01T10:45:19.554Z,2.60
2018-09-01T10:47:48.286Z,2.60
2018-09-01T10:50:17.854Z,2.90
2018-09-01T10:52:46.584Z,2.87
2018-09-01T10:55:15.895Z,3.00
2018-09-01T10:57:45.690Z,2.80
2018-09-01T11:00:18.075Z,3.20
2018-09-01T11:02:47.523Z,2.83
2018-09-01T11:05:17.089Z,3.10
2018-09-01T11:07:45.735Z,2.30
2018-09-01T11:10:14.499Z,2.60
2018-09-01T11:12:43.238Z,3.20
2018-09-01T11:15:12.083Z,2.77
2018-09-01T11:17:40.899Z,2.90
2018-09-01T11:20:09.565Z,3.07
2018-09-01T11:22:38.372Z,2.97
2018-09-01T11:25:07.283Z,2.23
2018-09-01T11:27:36.033Z,2.67
2018-09-01T11:30:05.246Z,3.10
2018-09-01T11:32:33.884Z,2.53
2018-09-01T11:35:02.538Z,2.40
2018-09-01T11:37:31.193Z,2.87
2018-09-01T11:39:59.839Z,2.57
2018-09-01T11:42:28.644Z,3.10
2018-09-01T11:44:57.212Z,2.90
2018-09-01T11:47:25.955Z,2.97
2018-09-01T11:49:54.675Z,2.40
2018-09-01T11:52:23.368Z,2.10
2018-09-01T11:54:52.074Z,2.57
2018-09-01T11:57:20.760Z,2.40
2018-09-01T11:59:49.640Z,1.93
2018-09-01T12:02:18.363Z,2.83
2018-09-01T12:04:47.013Z,3.30
2018-09-01T12:07:15.654Z,2.50
2018-09-01T12:09:44.323Z,2.67
2018-09-01T12:12:13.034Z,2.20
2018-09-01T12:14:41.701Z,2.03
2018-09-01T12:17:10.442Z,1.80
2018-09-01T12:19:39.139Z,2.73
2018-09-01T12:22:07.843Z,2.53
2018-09-01T12:24:37.098Z,2.10
2018-09-01T12:27:05.833Z,2.53
2018-09-01T12:29:34.480Z,2.47
2018-09-01T12:32:03.142Z,2.73
2018-09-01T12:34:32.020Z,2.30
2018-09-01T12:37:00.986Z,2.20
2018-09-01T12:39:29.706Z,1.90
2018-09-01T12:41:58.395Z,2.10
2018-09-01T12:44:27.274Z,1.90
2018-09-01T12:47:00.467Z,2.23
2018-09-01T12:49:29.212Z,1.90
2018-09-01T12:51:57.909Z,2.40
2018-09-01T12:54:26.587Z,2.63
2018-09-01T12:56:55.277Z,2.00
2018-09-01T12:59:23.944Z,2.50
2018-09-01T13:01:52.597Z,2.60
2018-09-01T13:04:21.247Z,1.77
2018-09-01T13:06:49.887Z,2.40
2018-09-01T13:09:18.900Z,2.00
2018-09-01T13:11:47.496Z,2.20
2018-09-01T13:14:16.139Z,2.03
2018-09-01T13:16:44.824Z,2.03
2018-09-01T13:19:13.512Z,2.23
2018-09-01T13:21:42.164Z,2.00
2018-09-01T13:24:10.827Z,2.43
2018-09-01T13:26:39.480Z,1.90
2018-09-01T13:29:08.183Z,2.40
2018-09-01T13:31:43.496Z,2.20
2018-09-01T13:34:12.205Z,2.20
2018-09-01T13:36:40.830Z,2.40
2018-09-01T13:39:10.244Z,2.40
2018-09-01T13:41:38.876Z,2.63
2018-09-01T13:44:08.182Z,2.13
2018-09-01T13:46:36.825Z,2.30
2018-09-01T13:49:05.701Z,1.90
2018-09-01T13:51:34.996Z,2.27
2018-09-01T13:54:03.692Z,2.43
2018-09-01T13:56:32.349Z,2.53
2018-09-01T13:59:01.032Z,2.23
2018-09-01T14:01:29.741Z,2.77
2018-09-01T14:03:58.481Z,2.07
2018-09-01T14:06:27.414Z,2.57
2018-09-01T14:08:56.156Z,3.33
2018-09-01T14:11:24.834Z,2.40
2018-09-01T14:13:53.500Z,2.83
2018-09-01T14:16:22.605Z,2.70
2018-09-01T14:18:51.263Z,2.47
2018-09-01T14:21:19.963Z,2.37
2018-09-01T14:23:48.645Z,1.90
2018-09-01T14:26:17.310Z,2.30
2018-09-01T14:28:45.905Z,2.23
2018-09-01T14:31:14.891Z,2.43
2018-09-01T14:33:43.542Z,2.17
2018-09-01T14:36:12.250Z,2.00
2018-09-01T14:38:40.869Z,2.47
2018-09-01T14:41:09.533Z,2.17
2018-09-01T14:43:38.143Z,2.00
2018-09-01T14:46:06.860Z,2.80
2018-09-01T14:48:35.519Z,2.10
2018-09-01T14:51:04.763Z,2.40
2018-09-01T14:53:33.425Z,2.30
2018-09-01T14:56:02.140Z,3.47
2018-09-01T14:58:31.005Z,2.37
2018-09-01T15:01:01.321Z,2.63
2018-09-01T15:03:31.771Z,2.17
2018-09-01T15:06:00.957Z,2.30
2018-09-01T15:08:29.775Z,2.23
2018-09-01T15:10:58.449Z,2.20
2018-09-01T15:13:27.103Z,2.77
2018-09-01T15:15:55.846Z,1.77
2018-09-01T15:18:25.217Z,2.17
2018-09-01T15:20:53.888Z,2.17
2018-09-01T15:23:23.551Z,3.10
2018-09-01T15:25:52.303Z,2.87
2018-09-01T15:28:21.023Z,2.93
2018-09-01T15:30:49.849Z,1.87
2018-09-01T15:33:18.632Z,2.20
2018-09-01T15:35:47.431Z,2.60
2018-09-01T15:38:16.147Z,2.27
2018-09-01T15:40:45.142Z,2.20
2018-09-01T15:43:13.805Z,2.00
2018-09-01T15:45:42.802Z,2.57
2018-09-01T15:48:11.704Z,2.30
2018-09-01T15:50:40.476Z,2.20
2018-09-01T15:53:09.125Z,2.13
2018-09-01T15:55:37.812Z,2.27
2018-09-01T15:58:07.096Z,2.50
2018-09-01T16:00:35.759Z,2.60
2018-09-01T16:03:04.367Z,3.07
2018-09-01T16:05:33.178Z,2.37
2018-09-01T16:08:01.835Z,2.23
2018-09-01T16:10:30.619Z,2.10
2018-09-01T16:12:59.313Z,2.00
2018-09-01T16:15:28.351Z,2.40
2018-09-01T16:17:57.067Z,2.50
2018-09-01T16:20:25.699Z,2.50
2018-09-01T16:22:54.408Z,2.53
2018-09-01T16:25:23.051Z,2.00
2018-09-01T16:27:51.722Z,2.60
2018-09-01T16:30:20.373Z,2.50
2018-09-01T16:32:49.064Z,2.10
2018-09-01T16:35:17.715Z,1.77
2018-09-01T16:37:46.479Z,2.30
2018-09-01T16:40:15.264Z,2.03
2018-09-01T16:42:43.904Z,2.13
2018-09-01T16:45:13.076Z,2.23
2018-09-01T16:47:42.348Z,2.10
2018-09-01T16:50:11.217Z,1.93
2018-09-01T16:52:40.464Z,2.40
2018-09-01T16:58:41.565Z,2.57
2018-09-01T17:01:10.258Z,2.50
2018-09-01T17:03:39.485Z,2.63
2018-09-01T17:06:08.640Z,2.47
2018-09-01T17:08:37.486Z,2.57
2018-09-01T17:11:06.271Z,2.40
2018-09-01T17:13:34.961Z,2.77
2018-09-01T17:16:03.681Z,2.60
2018-09-01T17:18:32.698Z,2.93
2018-09-01T17:21:01.395Z,2.87
2018-09-01T17:23:30.225Z,3.17
2018-09-01T17:25:58.887Z,4.70
2018-09-01T17:28:27.602Z,18.30
2018-09-01T17:30:56.317Z,22.00
2018-09-01T17:33:27.803Z,15.53
2018-09-01T17:35:56.766Z,29.17
2018-09-01T17:38:25.516Z,10.63
2018-09-01T17:40:54.323Z,10.43
2018-09-01T17:43:23.252Z,7.90
2018-09-01T17:45:53.714Z,4.40
2018-09-01T17:48:22.463Z,4.53
2018-09-01T17:50:51.171Z,4.20
2018-09-01T17:53:19.816Z,3.80
2018-09-01T17:55:48.455Z,4.00
2018-09-01T17:58:18.277Z,3.27
2018-09-01T18:00:46.999Z,3.43
2018-09-01T18:03:15.655Z,4.00
2018-09-01T18:05:44.375Z,3.80
2018-09-01T18:08:28.649Z,4.60
2018-09-01T18:11:21.587Z,3.83
2018-09-01T18:14:10.049Z,4.10
2018-09-01T18:16:44.818Z,4.00
2018-09-01T18:19:26.669Z,3.40
2018-09-01T18:22:02.155Z,3.40
2018-09-01T18:24:31.397Z,4.13
2018-09-01T18:27:00.063Z,3.53
2018-09-01T18:29:28.808Z,3.30
2018-09-01T18:32:00.026Z,2.80
2018-09-01T18:34:29.233Z,3.97
2018-09-01T18:36:57.999Z,3.83
2018-09-01T18:39:28.011Z,3.30
2018-09-01T18:41:57.465Z,4.20
2018-09-01T18:44:26.128Z,3.80
2018-09-01T18:46:54.931Z,4.20
2018-09-01T18:49:23.592Z,3.90
2018-09-01T18:51:52.262Z,4.40
2018-09-01T18:54:20.974Z,5.43
2018-09-01T18:56:49.626Z,5.10
2018-09-01T18:59:18.280Z,5.37
2018-09-01T19:01:46.992Z,6.07
2018-09-01T19:04:15.865Z,5.40
2018-09-01T19:06:44.807Z,5.07
2018-09-01T19:09:13.507Z,6.10
2018-09-01T19:11:42.155Z,4.87
2018-09-01T19:14:10.958Z,5.70
2018-09-01T19:16:39.580Z,5.57
2018-09-01T19:19:08.224Z,5.90
2018-09-01T19:21:36.931Z,6.00
2018-09-01T19:24:05.689Z,6.23
2018-09-01T19:26:34.350Z,6.23
2018-09-01T19:29:03.067Z,7.43
2018-09-01T19:31:31.894Z,6.47
2018-09-01T19:34:00.541Z,5.80
2018-09-01T19:36:29.199Z,6.20
2018-09-01T19:38:57.864Z,5.40
2018-09-01T19:41:27.487Z,6.17
2018-09-01T19:43:56.127Z,6.67
2018-09-01T19:46:24.865Z,6.30
2018-09-01T19:48:53.566Z,7.43
2018-09-01T19:51:22.240Z,7.57
2018-09-01T19:53:50.994Z,7.43
2018-09-01T19:56:19.684Z,6.63
2018-09-01T19:58:48.927Z,8.67
2018-09-01T20:01:17.686Z,9.80
2018-09-01T20:03:46.368Z,9.57
2018-09-01T20:06:15.024Z,9.07
2018-09-01T20:08:43.730Z,9.67
2018-09-01T20:11:12.365Z,9.03
2018-09-01T20:13:41.023Z,10.20
2018-09-01T20:16:09.705Z,14.37
2018-09-01T20:18:39.360Z,15.60
2018-09-01T20:21:08.037Z,15.93
2018-09-01T20:23:36.956Z,17.50
2018-09-01T20:26:05.634Z,16.50
2018-09-01T20:28:34.732Z,17.57
2018-09-01T20:31:04.090Z,15.73
2018-09-01T20:33:32.768Z,16.10
2018-09-01T20:36:01.419Z,14.60
2018-09-01T20:38:30.128Z,13.77
2018-09-01T20:40:58.775Z,16.00
2018-09-01T20:43:27.454Z,15.20
2018-09-01T20:45:56.100Z,16.03
2018-09-01T20:48:24.916Z,14.60
2018-09-01T20:50:53.598Z,12.27
2018-09-01T20:53:22.235Z,13.07
2018-09-01T20:55:50.916Z,14.90
2018-09-01T20:58:19.606Z,13.63
2018-09-01T21:00:48.362Z,14.97
2018-09-01T21:03:17.496Z,15.80
2018-09-01T21:05:46.223Z,15.13
2018-09-01T21:08:14.889Z,14.63
2018-09-01T21:10:43.572Z,17.03
2018-09-01T21:13:12.322Z,18.00
2018-09-01T21:15:42.319Z,18.63
2018-09-01T21:18:11.519Z,16.97
2018-09-01T21:20:40.240Z,13.83
2018-09-01T21:23:08.929Z,13.50
2018-09-01T21:25:37.660Z,15.37
2018-09-01T21:28:07.032Z,14.80
2018-09-01T21:30:35.796Z,15.57
2018-09-01T21:33:04.517Z,16.67
2018-09-01T21:35:33.242Z,16.50
2018-09-01T21:38:02.634Z,17.80
2018-09-01T21:40:32.144Z,19.17
2018-09-01T21:43:01.030Z,19.03
2018-09-01T21:45:29.755Z,16.37
2018-09-01T21:47:58.564Z,15.23
2018-09-01T21:50:28.019Z,14.47
2018-09-01T21:52:56.709Z,15.00
2018-09-01T21:55:25.405Z,13.13
2018-09-01T21:57:54.130Z,13.00
2018-09-01T22:00:22.764Z,14.47
2018-09-01T22:02:51.529Z,13.97
2018-09-01T22:05:21.160Z,14.10
2018-09-01T22:07:49.825Z,13.57
2018-09-01T22:10:18.548Z,13.20
2018-09-01T22:12:47.192Z,14.30
2018-09-01T22:15:15.919Z,18.07
2018-09-01T22:17:44.556Z,14.63
2018-09-01T22:20:13.236Z,16.90
2018-09-01T22:22:41.908Z,15.90
2018-09-01T22:25:12.405Z,32.50
2018-09-01T22:27:41.099Z,28.67
2018-09-01T22:30:09.783Z,18.33
2018-09-01T22:32:38.433Z,16.83
2018-09-01T22:35:07.108Z,18.47
2018-09-01T22:37:35.857Z,18.90
2018-09-01T22:40:04.522Z,20.57
2018-09-01T22:42:33.167Z,20.77
2018-09-01T22:45:01.913Z,16.43
2018-09-01T22:47:31.993Z,17.57
2018-09-01T22:50:00.695Z,17.00
2018-09-01T22:52:29.380Z,14.70
2018-09-01T22:54:58.053Z,14.97
2018-09-01T22:57:26.852Z,16.00
2018-09-01T22:59:55.694Z,15.80
2018-09-01T23:02:24.369Z,14.63
2018-09-01T23:04:53.039Z,15.77
2018-09-01T23:07:21.706Z,16.87
2018-09-01T23:09:50.362Z,16.73
2018-09-01T23:12:19.055Z,16.67
2018-09-01T23:14:47.764Z,15.03
2018-09-01T23:17:16.490Z,15.80
2018-09-01T23:19:45.208Z,16.13
2018-09-01T23:22:13.975Z,16.30
2018-09-01T23:24:42.675Z,16.17
2018-09-01T23:27:11.372Z,16.93
2018-09-01T23:29:40.063Z,16.67
2018-09-01T23:32:08.790Z,16.13
2018-09-01T23:34:37.447Z,15.00
2018-09-01T23:37:06.211Z,16.53
2018-09-01T23:39:34.878Z,16.30
2018-09-01T23:42:03.583Z,15.10
2018-09-01T23:44:32.244Z,15.27
2018-09-01T23:47:00.979Z,14.70
2018-09-01T23:49:29.635Z,14.67
2018-09-01T23:51:58.308Z,14.90
2018-09-01T23:54:27.002Z,15.83
2018-09-01T23:56:55.685Z,13.20
2018-09-01T23:59:24.419Z,13.43
